Flight Track Log - Related Links

Times and Time Zones

All times are in EDT time to prevent confusion due to time zone crossing. See the SWA1542 flight status page for this flight to view local times or setup timezone preferences in your user account.

Time Position Orientation Groundspeed Altitude Reporting Facility
EDT Latitude Longitude Course Direction KTS MPH feet Rate Location/Type
Wed 10:24:06 PM 39.1500 -76.6450 North 217 250 2,700  Level FlightAware ADS-B
Wed 10:24:19 PM 39.1190 -76.6120 140° Southeast 227 261 3,300 3,214 Climbing FlightAware ADS-B
Wed 10:24:34 PM 39.1070 -76.5930 129° Southeast 232 267 4,200 3,143 Climbing FlightAware ADS-B
Wed 10:24:40 PM 39.1060 -76.5860 100° East 235 270 4,400 2,308 Climbing FlightAware ADS-B
Wed 10:25:00 PM 39.1100 -76.5590 79° East 255 293 5,200 2,700 Climbing FlightAware ADS-B
Wed 10:25:20 PM 39.1140 -76.5280 81° East 275 316 6,200 3,600 Climbing FlightAware ADS-B
Wed 10:25:40 PM 39.1160 -76.4940 86° East 277 319 7,600 3,840 Climbing FlightAware ADS-B
Wed 10:26:10 PM 39.1220 -76.4450 81° East 288 331 9,400 3,138 Climbing FlightAware ADS-B
Wed 10:26:45 PM 39.1300 -76.3830 81° East 321 369 11,000 2,480 Climbing FlightAware ADS-B
Wed 10:27:25 PM 39.1410 -76.3040 80° East 361 415 12,500 2,486 Climbing FlightAware ADS-B
Wed 10:27:55 PM 39.1500 -76.2350 80° East 378 435 13,900 2,955 Climbing FlightAware ADS-B
Wed 10:28:32 PM 39.1610 -76.1490 81° East 394 453 15,800 3,000 Climbing FlightAware ADS-B
Wed 10:28:59 PM 39.1710 -76.0860 78° East 398 458 17,100 2,930 Climbing FlightAware ADS-B
Wed 10:29:15 PM 39.1840 -76.0520 64° Northeast 400 460 17,900 2,875 Climbing FlightAware ADS-B
Wed 10:29:47 PM 39.2200 -75.9910 53° Northeast 404 465 19,400 2,727 Climbing FlightAware ADS-B
Wed 10:30:21 PM 39.2600 -75.9250 52° Northeast 413 475 20,900 2,500 Climbing FlightAware ADS-B
Wed 10:30:59 PM 39.3040 -75.8530 52° Northeast 423 487 22,400 2,219 Climbing FlightAware ADS-B
Wed 10:31:34 PM 39.3480 -75.7830 51° Northeast 432 497 23,600 2,167 Climbing FlightAware ADS-B
Wed 10:32:11 PM 39.3970 -75.7100 49° Northeast 440 506 25,000 2,118 Climbing FlightAware ADS-B
Wed 10:32:42 PM 39.4380 -75.6500 48° Northeast 445 512 26,000 1,970 Climbing FlightAware ADS-B
Wed 10:33:18 PM 39.4880 -75.5740 50° Northeast 451 519 27,200 1,808 Climbing FlightAware ADS-B
Wed 10:33:55 PM 39.5380 -75.4990 49° Northeast 460 529 28,200 1,562 Climbing FlightAware ADS-B
Wed 10:34:31 PM 39.5880 -75.4230 49° Northeast 467 537 29,100 1,881 Climbing FlightAware ADS-B
Wed 10:35:02 PM 39.6320 -75.3550 50° Northeast 463 533 30,300 2,174 Climbing FlightAware ADS-B
Wed 10:35:40 PM 39.6840 -75.2760 49° Northeast 460 529 31,600 1,784 Climbing FlightAware ADS-B
Wed 10:36:16 PM 39.7340 -75.2000 49° Northeast 462 532 32,500 1,588 Climbing FlightAware ADS-B
Wed 10:36:48 PM 39.7790 -75.1310 50° Northeast 464 534 33,400 1,676 Climbing FlightAware ADS-B
Wed 10:37:24 PM 39.8290 -75.0550 49° Northeast 462 532 34,400 1,667 Climbing FlightAware ADS-B
Wed 10:38:00 PM 39.8780 -74.9790 50° Northeast 458 527 35,400 1,765 Climbing FlightAware ADS-B
Wed 10:38:32 PM 39.9210 -74.9130 50° Northeast 451 519 36,400 1,412 Climbing FlightAware ADS-B
Wed 10:39:08 PM 39.9690 -74.8380 50° Northeast 447 514 37,000 486 Climbing FlightAware ADS-B
Wed 10:39:46 PM 40.0200 -74.7590 50° Northeast 447 514 37,000  Level FlightAware ADS-B
Wed 10:40:22 PM 40.0670 -74.6870 50° Northeast 446 513 37,000  Level FlightAware ADS-B
Wed 10:40:52 PM 40.1070 -74.6250 50° Northeast 444 511 37,000  Level FlightAware ADS-B
Wed 10:41:30 PM 40.1580 -74.5470 49° Northeast 443 510 37,000  Level FlightAware ADS-B
Wed 10:42:06 PM 40.2050 -74.4740 50° Northeast 442 509 37,000  Level FlightAware ADS-B
Wed 10:42:43 PM 40.2530 -74.3990 50° Northeast 442 509 37,000  Level FlightAware ADS-B
Wed 10:43:16 PM 40.2980 -74.3290 50° Northeast 443 510 37,000  Level FlightAware ADS-B
Wed 10:43:52 PM 40.3440 -74.2560 50° Northeast 444 511 37,000  Level FlightAware ADS-B
Wed 10:44:28 PM 40.3930 -74.1800 50° Northeast 445 512 37,000  Level FlightAware ADS-B
Wed 10:45:01 PM 40.4340 -74.1150 50° Northeast 446 513 37,000  Level FlightAware ADS-B
Wed 10:45:36 PM 40.4820 -74.0400 50° Northeast 446 513 37,000 -761 Level FlightAware ADS-B
Wed 10:46:12 PM 40.5280 -73.9670 50° Northeast 441 507 36,100 -2,206 Descending FlightAware ADS-B
Wed 10:46:44 PM 40.5700 -73.9000 50° Northeast 448 516 34,500 -3,176 Descending FlightAware ADS-B
Wed 10:47:20 PM 40.6190 -73.8220 50° Northeast 454 522 32,500 -3,333 Descending FlightAware ADS-B
Wed 10:47:56 PM 40.6660 -73.7470 50° Northeast 458 527 30,500 -3,167 Descending FlightAware ADS-B
Wed 10:48:32 PM 40.7130 -73.6720 50° Northeast 457 526 28,700 -3,000 Descending FlightAware ADS-B
Wed 10:49:06 PM 40.7610 -73.5970 50° Northeast 450 518 27,000 -2,743 Descending FlightAware ADS-B
Wed 10:49:42 PM 40.8080 -73.5220 50° Northeast 442 509 25,500 -2,507 Descending FlightAware ADS-B
Wed 10:50:13 PM 40.8450 -73.4610 51° Northeast 433 498 24,200 -1,343 Descending FlightAware ADS-B
Wed 10:50:49 PM 40.8920 -73.3910 48° Northeast 429 494 24,000 -493 Descending FlightAware ADS-B
Wed 10:51:26 PM 40.9430 -73.3150 48° Northeast 430 495 23,600 -822 Descending FlightAware ADS-B
Wed 10:52:02 PM 40.9900 -73.2450 48° Northeast 426 490 23,000 -529 Descending FlightAware ADS-B
Wed 10:52:34 PM 41.0330 -73.1820 48° Northeast 424 488 23,000  Level FlightAware ADS-B
Wed 10:53:10 PM 41.0800 -73.1120 48° Northeast 423 487 23,000  Level FlightAware ADS-B
Wed 10:53:46 PM 41.1270 -73.0420 48° Northeast 423 487 23,000  Level FlightAware ADS-B
Wed 10:54:23 PM 41.1750 -72.9710 48° Northeast 425 489 23,000  Level FlightAware ADS-B
Wed 10:54:55 PM 41.2150 -72.9040 52° Northeast 424 488 23,000  Level FlightAware ADS-B
Wed 10:55:28 PM 41.2450 -72.8290 62° Northeast 424 488 23,000  Level FlightAware ADS-B
Wed 10:56:06 PM 41.2760 -72.7420 65° Northeast 424 488 23,000  Level FlightAware ADS-B
Wed 10:56:41 PM 41.3050 -72.6590 65° Northeast 423 487 23,000  Level FlightAware ADS-B
Wed 10:57:14 PM 41.3320 -72.5850 64° Northeast 424 488 23,000  Level FlightAware ADS-B
Wed 10:57:51 PM 41.3660 -72.4940 64° Northeast 424 488 23,000  Level FlightAware ADS-B
Wed 10:58:25 PM 41.3940 -72.4160 64° Northeast 425 489 23,000  Level FlightAware ADS-B
Wed 10:59:02 PM 41.4250 -72.3320 64° Northeast 426 490 23,000  Level FlightAware ADS-B
Wed 10:59:34 PM 41.4520 -72.2560 65° Northeast 426 490 23,000  Level FlightAware ADS-B
Wed 11:00:09 PM 41.4820 -72.1730 64° Northeast 426 490 23,000  Level FlightAware ADS-B
Wed 11:00:46 PM 41.5150 -72.0820 64° Northeast 427 491 23,000  Level FlightAware ADS-B
Wed 11:01:20 PM 41.5440 -72.0030 64° Northeast 428 493 23,000  Level FlightAware ADS-B
Wed 11:01:55 PM 41.5730 -71.9210 65° Northeast 427 491 23,000 -171 Level FlightAware ADS-B
Wed 11:02:30 PM 41.6040 -71.8340 64° Northeast 426 490 22,800 -1,167 Descending FlightAware ADS-B
Wed 11:03:07 PM 41.6320 -71.7570 64° Northeast 418 481 21,600 -2,348 Descending FlightAware ADS-B
Wed 11:03:39 PM 41.6620 -71.6720 65° Northeast 408 470 20,100 -2,609 Descending FlightAware ADS-B
Wed 11:04:16 PM 41.6920 -71.5880 64° Northeast 400 460 18,600 -2,417 Descending FlightAware ADS-B
Wed 11:04:51 PM 41.7180 -71.5130 65° Northeast 394 453 17,200 -2,500 Descending FlightAware ADS-B
Wed 11:05:28 PM 41.7470 -71.4320 64° Northeast 389 448 15,600 -2,522 Descending FlightAware ADS-B
Wed 11:06:00 PM 41.7710 -71.3630 65° Northeast 382 440 14,300 -2,471 Descending FlightAware ADS-B
Wed 11:06:36 PM 41.7990 -71.2850 64° Northeast 372 428 12,800 -2,348 Descending FlightAware ADS-B
Wed 11:07:09 PM 41.8220 -71.2170 66° East 363 418 11,600 -1,629 Descending FlightAware ADS-B
Wed 11:07:46 PM 41.8470 -71.1450 65° Northeast 336 387 10,900 -667 Descending FlightAware ADS-B
Wed 11:08:21 PM 41.8720 -71.0840 61° Northeast 316 364 10,800 -88 Descending FlightAware ADS-B
Wed 11:08:54 PM 41.8960 -71.0280 60° Northeast 312 359 10,800  Level FlightAware ADS-B
Wed 11:09:30 PM 41.9220 -70.9680 60° Northeast 309 356 10,800  Level FlightAware ADS-B
Wed 11:10:07 PM 41.9470 -70.9110 59° Northeast 309 356 10,800  Level FlightAware ADS-B
Wed 11:10:39 PM 41.9720 -70.8520 60° Northeast 310 357 10,800 -346 Level FlightAware ADS-B
Wed 11:10:59 PM 41.9860 -70.8200 60° Northeast 304 350 10,500 -873 Descending FlightAware ADS-B
Wed 11:11:34 PM 42.0100 -70.7650 60° Northeast 286 329 10,000 -764 Descending FlightAware ADS-B
Wed 11:11:54 PM 42.0270 -70.7380 50° Northeast 272 313 9,800 -686 Descending FlightAware ADS-B
Wed 11:12:09 PM 42.0380 -70.7210 49° Northeast 266 306 9,600 -1,235 Descending FlightAware ADS-B
Wed 11:12:28 PM 42.0550 -70.6960 48° Northeast 265 305 9,100 -1,286 Descending FlightAware ADS-B
Wed 11:12:37 PM 42.0590 -70.6900 48° Northeast 265 305 9,000 -167 Descending FlightAware ADS-B
Wed 11:13:04 PM 42.0780 -70.6620 48° Northeast 265 305 9,000 -1,412 Level FlightAware ADS-B
Wed 11:13:28 PM 42.1020 -70.6270 47° Northeast 266 306 7,800 -1,846 Descending FlightAware ADS-B
Wed 11:13:43 PM 42.1200 -70.6130 30° Northeast 259 298 7,800 -360 Level FlightAware ADS-B
Wed 11:14:18 PM 42.1610 -70.6040 North 261 300 7,500 -800 Descending FlightAware ADS-B
Wed 11:14:28 PM 42.1740 -70.6030 North 273 314 7,200 -1,655 Descending FlightAware ADS-B
Wed 11:14:47 PM 42.2010 -70.6000 North 273 314 6,700 -1,227 Descending FlightAware ADS-B
Wed 11:15:12 PM 42.2330 -70.5970 North 267 307 6,300 -1,067 Descending FlightAware ADS-B
Wed 11:15:32 PM 42.2560 -70.5940 North 262 302 5,900 -1,231 Descending FlightAware ADS-B
Wed 11:15:51 PM 42.2800 -70.5910 North 259 298 5,500 -1,171 Descending FlightAware ADS-B
Wed 11:16:13 PM 42.3060 -70.5880 North 257 296 5,100 -1,000 Descending FlightAware ADS-B
Wed 11:16:33 PM 42.3300 -70.5850 North 256 295 4,800 -450 Descending FlightAware ADS-B
Wed 11:16:53 PM 42.3520 -70.5820 North 265 305 4,800  Level FlightAware ADS-B
Wed 11:17:10 PM 42.3740 -70.5800 North 266 306 4,800  Level FlightAware ADS-B
Wed 11:17:18 PM 42.3840 -70.5840 344° North 265 305 4,800  Level FlightAware ADS-B
Wed 11:17:38 PM 42.4070 -70.5970 337° Northwest 265 305 4,800  Level FlightAware ADS-B
Wed 11:17:58 PM 42.4270 -70.6110 333° Northwest 257 296 4,800  Level FlightAware ADS-B
Wed 11:18:13 PM 42.4400 -70.6280 316° Northwest 242 278 4,800  Level FlightAware ADS-B
Wed 11:18:26 PM 42.4510 -70.6420 317° Northwest 231 266 4,800 -545 Level FlightAware ADS-B
Wed 11:18:46 PM 42.4650 -70.6620 314° West 227 261 4,500 -923 Descending FlightAware ADS-B
Wed 11:19:05 PM 42.4800 -70.6810 317° Northwest 226 260 4,200 -818 Descending FlightAware ADS-B
Wed 11:19:30 PM 42.4980 -70.7050 315° West 221 254 3,900 -652 Descending FlightAware ADS-B
Wed 11:19:51 PM 42.5130 -70.7250 315° West 209 241 3,700 -600 Descending FlightAware ADS-B
Wed 11:20:10 PM 42.5250 -70.7430 312° West 200 230 3,500 -769 Descending FlightAware ADS-B
Wed 11:20:30 PM 42.5380 -70.7610 314° West 192 221 3,200 -955 Descending FlightAware ADS-B
Wed 11:20:54 PM 42.5530 -70.7820 314° West 190 219 2,800 -649 Descending FlightAware ADS-B
Wed 11:21:07 PM 42.5590 -70.7940 304° West 187 215 2,800  Level FlightAware ADS-B
Wed 11:21:13 PM 42.5600 -70.8010 281° West 188 216 2,800  Level FlightAware ADS-B
Wed 11:21:33 PM 42.5590 -70.8220 266° West 190 219 2,800  Level FlightAware ADS-B
Wed 11:21:52 PM 42.5570 -70.8450 263° West 190 219 2,800  Level FlightAware ADS-B
Wed 11:22:02 PM 42.5540 -70.8580 253° West 190 219 2,800  Level FlightAware ADS-B
Wed 11:22:07 PM 42.5520 -70.8630 241° Southwest 190 219 2,800  Level FlightAware ADS-B
Wed 11:22:32 PM 42.5380 -70.8870 232° Southwest 192 221 2,800  Level FlightAware ADS-B
Wed 11:22:52 PM 42.5270 -70.9050 230° Southwest 188 216 2,800  Level FlightAware ADS-B
Wed 11:23:12 PM 42.5160 -70.9240 232° Southwest 181 208 2,800  Level FlightAware ADS-B
Wed 11:23:22 PM 42.5100 -70.9320 225° Southwest 180 207 2,800 -1,000 Level FlightAware ADS-B
Wed 11:23:42 PM 42.4950 -70.9420 206° Southwest 175 201 2,300 -1,200 Descending FlightAware ADS-B
Wed 11:24:02 PM 42.4800 -70.9490 199° South 170 196 2,000 -900 Descending FlightAware ADS-B
Wed 11:24:22 PM 42.4640 -70.9570 200° South 170 196 1,700 -900 Descending FlightAware ADS-B
Wed 11:24:42 PM 42.4500 -70.9640 200° South 158 182 1,400 -857 Descending FlightAware ADS-B
Wed 11:24:57 PM 42.4400 -70.9690 200° South 143 165 1,200 -686 Descending FlightAware ADS-B
Wed 11:25:17 PM 42.4270 -70.9750 199° South 137 158 1,000 -686 Descending FlightAware ADS-B
Wed 11:25:32 PM 42.4180 -70.9790 198° South 141 162 800 -750 Descending FlightAware ADS-B
Wed 11:25:57 PM 42.4030 -70.9870 201° Southwest 124 143 500 -750 Descending FlightAware ADS-B
Wed 11:26:12 PM 42.3940 -70.9910 198° South 126 145 300 -383 Descending FlightAware ADS-B
Wed 11:26:44 PM 42.3800 -70.9980 200° South 126 145 200 -188 Descending FlightAware ADS-B

Login

Don't have an account? Register now (free) for customized features, flight alerts, and more!